Star City, IN (46985)

9:23 PM EDT on July 28, 2016 (GMT -0400)
400 west | | Change Station

Elev 745 ft 41.09 °N, 86.32 °W | Updated 0 second ago

Clear
Clear
73.7 °F
Feels Like 74 °F
N
2.0
Wind Variable Wind from ESE
Gusts 4.0 mph

Today
High -- | Low -- °F
--% Chance of Precip.
Yesterday
High -- | Low -- °F
Precip. -- in
Pressure 29.89 in
Visibility 10.0 miles
Clouds Clear
Heat Index 74 °F
Dew Point 68 °F
Humidity 82%
Rainfall 0.00 in
Snow Depth Not available.
6:38 AM 9:05 PM
Waning Crescent, 27% visible
METAR KGGP 290115Z AUTO 00000KT 10SM CLR 23/21 A2989 RMK AO2
Pressure 29.89 in
Visibility 10.0 miles
Clouds Clear
Heat Index 74 °F
Dew Point 68 °F
Humidity 82%
Rainfall 0.00 in
Snow Depth Not available.
6:38 AM 9:05 PM
Waning Crescent, 27% visible
METAR KGGP 290115Z AUTO 00000KT 10SM CLR 23/21 A2989 RMK AO2

10-Day Weather Forecast

Almanac

Astronomy

Jul. 28, 2016 Rise Set
Actual Time
Civil Twilight
Nautical Twilight
Astronomical Twilight
Moon
Length of Visible Light
Length of Day
Tomorrow will be .
, % of the Moon is Illuminated

Today's Extremes

State Highs State Lows

Community

WunderPhotos

Upload Photos

1,928,246 photos uploaded!

WunderBlog® & News

Nearby

Air Quality

  Air Quality AQ Index Pollutant
Not available.

Snow Depth

Station Depth Elevation

Earthquake Activity

City Distance Mag. Time & Date
Minimum magnitude displayed is 2.5.

Coastal Water Temperatures

Place Temperature

Stations

Nearby Weather Stations

Station Location Temp. Windchill Dew Point Humidity Wind Precip. Elev Updated Type
                   

Watches & Warnings

There are currently no watches in effect.